createdAt,value
2018-08-16T00:00:47.525Z,78.60
2018-08-16T00:03:19.407Z,79.20
2018-08-16T00:05:51.625Z,79.70
2018-08-16T00:08:23.266Z,78.40
2018-08-16T00:10:54.256Z,78.30
2018-08-16T00:13:24.620Z,80.10
2018-08-16T00:15:55.946Z,79.30
2018-08-16T00:18:29.726Z,78.50
2018-08-16T00:21:00.613Z,78.00
2018-08-16T00:23:31.255Z,77.30
2018-08-16T00:26:03.715Z,77.40
2018-08-16T00:28:34.884Z,78.80
2018-08-16T00:31:05.587Z,80.60
2018-08-16T00:36:30.962Z,78.70
2018-08-16T00:38:59.984Z,78.20
2018-08-16T00:41:28.965Z,80.60
2018-08-16T00:43:57.812Z,80.10
2018-08-16T00:46:26.654Z,79.90
2018-08-16T00:48:55.589Z,81.50
2018-08-16T00:51:24.619Z,80.30
2018-08-16T00:53:53.463Z,80.70
2018-08-16T00:56:22.363Z,79.80
2018-08-16T00:58:51.249Z,79.90
2018-08-16T01:01:20.191Z,79.70
2018-08-16T01:03:49.008Z,80.10
2018-08-16T01:06:17.924Z,79.80
2018-08-16T01:08:46.827Z,78.90
2018-08-16T01:11:15.699Z,80.00
2018-08-16T01:13:44.548Z,79.40
2018-08-16T01:16:13.504Z,78.30
2018-08-16T01:18:42.855Z,79.40
2018-08-16T01:21:12.985Z,79.10
2018-08-16T01:23:42.961Z,78.70
2018-08-16T01:26:12.915Z,78.50
2018-08-16T01:28:41.848Z,78.00
2018-08-16T01:31:10.671Z,77.90
2018-08-16T01:33:44.711Z,78.30
2018-08-16T01:36:14.939Z,78.00
2018-08-16T01:38:45.740Z,77.40
2018-08-16T01:41:16.945Z,77.90
2018-08-16T01:43:47.730Z,78.30
2018-08-16T01:46:18.181Z,78.90
2018-08-16T01:48:48.904Z,78.20
2018-08-16T01:51:18.764Z,78.00
2018-08-16T01:53:50.606Z,78.30
2018-08-16T01:56:22.077Z,79.40
2018-08-16T01:58:53.357Z,80.20
2018-08-16T02:01:24.836Z,80.70
2018-08-16T02:03:55.800Z,80.20
2018-08-16T02:06:25.938Z,80.60
2018-08-16T02:08:56.724Z,80.20
2018-08-16T02:11:29.228Z,80.90
2018-08-16T02:13:59.359Z,80.80
2018-08-16T02:16:29.526Z,80.60
2018-08-16T02:19:02.595Z,81.20
2018-08-16T02:21:34.713Z,80.20
2018-08-16T02:24:04.759Z,80.50
2018-08-16T02:26:35.406Z,81.60
2018-08-16T02:29:06.915Z,82.20
2018-08-16T02:31:36.597Z,82.80
2018-08-16T02:34:07.872Z,84.00
2018-08-16T02:36:39.131Z,84.00
2018-08-16T02:39:11.657Z,82.60
2018-08-16T02:41:41.966Z,82.10
2018-08-16T02:44:16.735Z,83.10
2018-08-16T02:46:47.288Z,84.10
2018-08-16T02:49:18.506Z,83.10
2018-08-16T02:51:49.421Z,83.10
2018-08-16T02:54:20.594Z,82.30
2018-08-16T02:56:51.316Z,81.80
2018-08-16T02:59:21.683Z,82.00
2018-08-16T03:01:52.261Z,81.10
2018-08-16T03:04:25.025Z,81.70
2018-08-16T03:06:56.596Z,81.50
2018-08-16T03:09:27.245Z,82.30
2018-08-16T03:11:58.057Z,82.50
2018-08-16T03:14:30.839Z,82.70
2018-08-16T03:17:02.341Z,82.10
2018-08-16T03:19:33.519Z,82.00
2018-08-16T03:22:02.385Z,84.40
2018-08-16T03:24:31.296Z,84.20
2018-08-16T03:27:01.176Z,85.60
2018-08-16T03:29:31.102Z,85.90
2018-08-16T03:32:00.000Z,86.50
2018-08-16T03:34:29.241Z,85.60
2018-08-16T03:36:58.182Z,85.40
2018-08-16T03:39:27.089Z,86.00
2018-08-16T03:41:56.026Z,87.00
2018-08-16T03:44:24.873Z,87.30
2018-08-16T03:46:53.829Z,85.90
2018-08-16T03:49:22.993Z,85.10
2018-08-16T03:51:51.983Z,87.50
2018-08-16T03:54:20.948Z,86.20
2018-08-16T03:56:49.761Z,84.90
2018-08-16T03:59:18.596Z,84.70
2018-08-16T04:01:47.530Z,83.30
2018-08-16T04:04:16.390Z,84.70
2018-08-16T04:06:45.415Z,85.10
2018-08-16T04:09:14.299Z,84.10
2018-08-16T04:14:18.223Z,85.20
2018-08-16T04:16:47.466Z,85.40
2018-08-16T04:19:16.606Z,84.50
2018-08-16T04:21:45.472Z,83.60
2018-08-16T04:24:14.319Z,84.20
2018-08-16T04:26:43.253Z,85.30
2018-08-16T04:29:12.113Z,83.60
2018-08-16T04:31:40.921Z,85.00
2018-08-16T04:34:09.739Z,86.60
2018-08-16T04:36:38.725Z,85.60
2018-08-16T04:39:08.315Z,85.30
2018-08-16T04:41:37.594Z,85.10
2018-08-16T04:44:06.628Z,84.50
2018-08-16T04:46:35.484Z,84.70
2018-08-16T04:49:04.420Z,84.50
2018-08-16T04:51:33.300Z,84.40
2018-08-16T04:54:02.146Z,84.90
2018-08-16T04:56:32.172Z,83.80
2018-08-16T04:59:02.175Z,82.60
2018-08-16T05:01:32.123Z,83.50
2018-08-16T05:04:02.013Z,82.70
2018-08-16T05:06:31.920Z,82.60
2018-08-16T05:09:00.766Z,81.80
2018-08-16T05:11:29.751Z,81.10
2018-08-16T05:13:58.933Z,79.70
2018-08-16T05:16:27.667Z,79.20
2018-08-16T05:18:57.558Z,80.10
2018-08-16T05:21:26.421Z,79.40
2018-08-16T05:23:55.324Z,77.70
2018-08-16T05:26:24.201Z,76.00
2018-08-16T05:28:54.008Z,76.30
2018-08-16T05:31:22.958Z,76.50
2018-08-16T05:33:51.837Z,77.90
2018-08-16T05:36:20.719Z,76.30
2018-08-16T05:38:49.565Z,76.80
2018-08-16T05:41:18.753Z,73.10
2018-08-16T05:43:47.765Z,74.10
2018-08-16T05:46:16.953Z,74.40
2018-08-16T05:48:47.213Z,74.20
2018-08-16T05:51:16.103Z,73.40
2018-08-16T05:53:44.956Z,75.40
2018-08-16T05:56:13.859Z,74.90
2018-08-16T05:58:43.739Z,74.70
2018-08-16T06:01:12.770Z,73.20
2018-08-16T06:03:41.674Z,75.60
2018-08-16T06:06:10.449Z,74.70
2018-08-16T06:08:39.266Z,72.80
2018-08-16T06:11:08.099Z,72.30
2018-08-16T06:13:36.990Z,69.80
2018-08-16T06:16:06.715Z,70.80
2018-08-16T06:18:35.506Z,70.80
2018-08-16T06:21:04.543Z,69.80
2018-08-16T06:23:33.412Z,69.80
2018-08-16T06:26:02.785Z,69.80
2018-08-16T06:28:33.180Z,69.50
2018-08-16T06:31:02.973Z,69.50
2018-08-16T06:33:32.999Z,71.80
2018-08-16T06:38:37.037Z,68.40
2018-08-16T06:41:05.870Z,69.10
2018-08-16T06:43:34.735Z,67.10
2018-08-16T06:46:03.726Z,66.60
2018-08-16T06:48:33.293Z,66.80
2018-08-16T06:51:09.014Z,67.80
2018-08-16T06:53:38.346Z,67.30
2018-08-16T06:56:07.143Z,67.20
2018-08-16T06:58:35.974Z,66.70
2018-08-16T07:01:04.803Z,66.70
2018-08-16T07:03:33.580Z,67.30
2018-08-16T07:06:06.325Z,68.30
2018-08-16T07:08:35.194Z,67.70
2018-08-16T07:11:04.237Z,67.20
2018-08-16T07:13:33.437Z,66.30
2018-08-16T07:16:03.687Z,66.10
2018-08-16T07:18:33.709Z,64.30
2018-08-16T07:21:03.377Z,66.20
2018-08-16T07:23:32.293Z,65.90
2018-08-16T07:26:01.221Z,65.90
2018-08-16T07:28:30.114Z,63.70
2018-08-16T07:30:59.271Z,65.40
2018-08-16T07:33:28.217Z,64.70
2018-08-16T07:35:57.058Z,64.10
2018-08-16T07:38:25.865Z,64.90
2018-08-16T07:40:54.687Z,64.60
2018-08-16T07:43:23.694Z,63.20
2018-08-16T07:45:52.677Z,63.10
2018-08-16T07:48:21.414Z,62.80
2018-08-16T07:50:50.256Z,63.70
2018-08-16T07:53:19.194Z,61.90
2018-08-16T07:55:48.057Z,63.20
2018-08-16T07:58:16.960Z,61.30
2018-08-16T08:00:46.425Z,61.60
2018-08-16T08:03:15.345Z,60.40
2018-08-16T08:05:44.272Z,59.20
2018-08-16T08:08:15.215Z,60.70
2018-08-16T08:10:44.114Z,59.80
2018-08-16T08:13:13.043Z,59.20
2018-08-16T08:15:41.896Z,56.30
2018-08-16T08:18:10.807Z,58.10
2018-08-16T08:20:39.736Z,57.80
2018-08-16T08:23:08.663Z,57.10
2018-08-16T08:25:37.585Z,55.90
2018-08-16T08:28:07.239Z,56.00
2018-08-16T08:30:36.062Z,54.20
2018-08-16T08:33:05.140Z,53.80
2018-08-16T08:35:34.127Z,53.30
2018-08-16T08:38:16.188Z,54.50
2018-08-16T08:40:44.982Z,54.50
2018-08-16T08:45:23.446Z,55.80
2018-08-16T08:47:56.120Z,56.00
2018-08-16T08:50:25.443Z,53.20
2018-08-16T08:52:59.150Z,53.70
2018-08-16T08:55:39.240Z,53.80
2018-08-16T08:58:19.234Z,52.70
2018-08-16T09:00:48.184Z,54.10
2018-08-16T09:03:17.067Z,53.50
2018-08-16T09:05:45.932Z,53.40
2018-08-16T09:08:14.865Z,52.10
2018-08-16T09:10:55.713Z,51.50
2018-08-16T09:13:36.637Z,53.20
2018-08-16T09:16:18.837Z,52.30
2018-08-16T09:18:48.194Z,53.70
2018-08-16T09:21:17.253Z,52.90
2018-08-16T09:23:46.174Z,53.60
2018-08-16T09:26:20.416Z,54.80
2018-08-16T09:28:49.651Z,51.80
2018-08-16T09:31:29.581Z,52.20
2018-08-16T09:34:09.496Z,55.50
2018-08-16T09:36:38.619Z,54.60
2018-08-16T09:39:09.126Z,54.70
2018-08-16T09:41:38.996Z,58.10
2018-08-16T09:44:08.245Z,55.90
2018-08-16T09:46:50.936Z,55.40
2018-08-16T09:49:19.919Z,56.40
2018-08-16T09:51:48.979Z,57.30
2018-08-16T09:54:17.935Z,59.30
2018-08-16T09:56:47.344Z,60.30
2018-08-16T09:59:16.496Z,55.40
2018-08-16T10:01:45.407Z,55.40
2018-08-16T10:04:14.324Z,51.80
2018-08-16T10:06:43.652Z,51.00
2018-08-16T10:09:21.113Z,51.70
2018-08-16T10:11:50.212Z,52.20
2018-08-16T10:14:19.586Z,50.30
2018-08-16T10:16:48.482Z,49.10
2018-08-16T10:19:17.854Z,49.80
2018-08-16T10:21:46.764Z,49.60
2018-08-16T10:24:15.628Z,50.80
2018-08-16T10:26:44.502Z,46.40
2018-08-16T10:29:13.620Z,47.90
2018-08-16T10:31:42.486Z,48.20
2018-08-16T10:34:11.334Z,48.50
2018-08-16T10:36:40.371Z,47.30
2018-08-16T10:39:16.018Z,47.90
2018-08-16T10:41:44.779Z,48.30
2018-08-16T10:44:14.388Z,48.20
2018-08-16T10:46:43.336Z,45.70
2018-08-16T10:49:12.412Z,47.20
2018-08-16T10:51:41.333Z,48.80
2018-08-16T10:54:10.200Z,47.30
2018-08-16T10:56:39.097Z,46.90
2018-08-16T10:59:09.807Z,47.30
2018-08-16T11:01:39.013Z,48.30
2018-08-16T11:04:08.842Z,47.40
2018-08-16T11:06:38.970Z,46.90
2018-08-16T11:09:10.041Z,51.50
2018-08-16T11:11:39.354Z,49.40
2018-08-16T11:14:09.033Z,50.50
2018-08-16T11:16:38.948Z,46.80
2018-08-16T11:19:09.913Z,47.80
2018-08-16T11:21:39.249Z,48.20
2018-08-16T11:24:09.041Z,46.80
2018-08-16T11:26:39.048Z,45.00
2018-08-16T11:29:08.968Z,44.80
2018-08-16T11:31:37.832Z,45.40
2018-08-16T11:34:06.666Z,45.20
2018-08-16T11:36:35.543Z,47.40
2018-08-16T11:39:05.971Z,44.50
2018-08-16T11:41:34.941Z,47.00
2018-08-16T11:44:03.983Z,47.30
2018-08-16T11:46:33.166Z,47.80
2018-08-16T11:49:01.938Z,46.90
2018-08-16T11:51:30.931Z,46.30
2018-08-16T11:54:00.270Z,47.30
2018-08-16T11:56:29.151Z,46.40
2018-08-16T11:58:57.993Z,46.60
2018-08-16T12:01:27.016Z,47.70
2018-08-16T12:03:55.834Z,43.40
2018-08-16T12:11:33.710Z,46.30
2018-08-16T12:14:02.643Z,43.10
2018-08-16T12:16:31.525Z,42.60
2018-08-16T12:19:00.404Z,46.10
2018-08-16T12:21:29.174Z,43.80
2018-08-16T12:23:58.061Z,44.70
2018-08-16T12:26:27.144Z,44.10
2018-08-16T12:28:56.045Z,45.40
2018-08-16T12:31:24.863Z,46.30
2018-08-16T12:33:54.019Z,47.10
2018-08-16T12:36:22.940Z,47.10
2018-08-16T12:38:51.750Z,48.10
2018-08-16T12:41:20.573Z,47.00
2018-08-16T12:43:49.468Z,47.60
2018-08-16T12:46:18.344Z,47.60
2018-08-16T12:48:47.121Z,46.90
2018-08-16T12:51:16.048Z,46.50
2018-08-16T12:53:44.932Z,47.40
2018-08-16T12:56:13.780Z,47.60
2018-08-16T12:58:42.721Z,47.90
2018-08-16T13:01:11.524Z,46.30
2018-08-16T13:03:46.621Z,49.30
2018-08-16T13:06:15.429Z,47.50
2018-08-16T13:08:44.334Z,47.20
2018-08-16T13:11:13.937Z,49.00
2018-08-16T13:13:42.717Z,45.90
2018-08-16T13:16:11.642Z,46.50
2018-08-16T13:18:40.638Z,46.10
2018-08-16T13:21:10.104Z,47.90
2018-08-16T13:23:40.085Z,46.50
2018-08-16T13:33:42.445Z,48.00
2018-08-16T13:36:11.244Z,45.90
2018-08-16T13:38:40.229Z,45.00
2018-08-16T13:41:16.035Z,46.60
2018-08-16T13:43:44.782Z,44.60
2018-08-16T13:46:13.715Z,47.00
2018-08-16T13:51:17.253Z,43.20
2018-08-16T13:53:46.166Z,44.90
2018-08-16T13:56:15.002Z,45.90
2018-08-16T13:58:44.550Z,44.20
2018-08-16T14:01:13.491Z,43.70
2018-08-16T14:03:43.045Z,43.80
2018-08-16T14:06:11.941Z,43.10
2018-08-16T14:08:40.840Z,43.90
2018-08-16T14:11:10.524Z,42.90
2018-08-16T14:13:39.729Z,41.90
2018-08-16T14:16:08.691Z,43.50
2018-08-16T14:18:37.596Z,42.10
2018-08-16T14:21:06.393Z,42.30
2018-08-16T14:23:35.289Z,43.60
2018-08-16T14:26:04.176Z,43.20
2018-08-16T14:28:32.959Z,43.60
2018-08-16T14:31:01.828Z,42.30
2018-08-16T14:33:30.713Z,43.40
2018-08-16T14:38:33.684Z,43.30
2018-08-16T14:41:02.496Z,43.30
2018-08-16T14:43:31.392Z,42.80
2018-08-16T14:46:00.227Z,42.70
2018-08-16T14:48:29.080Z,42.10
2018-08-16T14:50:57.948Z,40.80
2018-08-16T14:53:31.837Z,40.60
2018-08-16T14:56:03.892Z,41.90
2018-08-16T14:58:36.783Z,42.10
2018-08-16T15:01:08.576Z,42.00
2018-08-16T15:03:39.995Z,41.00
2018-08-16T15:06:12.577Z,43.60
2018-08-16T15:08:46.174Z,41.70
2018-08-16T15:11:16.722Z,41.40
2018-08-16T15:13:47.031Z,42.90
2018-08-16T15:16:18.276Z,41.70
2018-08-16T15:18:50.843Z,39.90
2018-08-16T15:21:22.317Z,42.10
2018-08-16T15:23:52.541Z,39.90
2018-08-16T15:26:22.852Z,41.10
2018-08-16T15:28:53.627Z,41.30
2018-08-16T15:31:25.144Z,42.10
2018-08-16T15:33:56.883Z,39.70
2018-08-16T15:36:28.355Z,41.60
2018-08-16T15:41:36.891Z,41.70
2018-08-16T15:44:10.857Z,41.50
2018-08-16T15:46:42.194Z,41.60
2018-08-16T15:49:14.286Z,41.20
2018-08-16T15:51:45.424Z,42.70
2018-08-16T15:54:16.872Z,41.00
2018-08-16T15:56:47.676Z,41.60
2018-08-16T15:59:18.392Z,42.10
2018-08-16T16:01:50.880Z,41.70
2018-08-16T16:04:23.235Z,41.60
2018-08-16T16:06:53.368Z,42.10
2018-08-16T16:09:27.799Z,42.20
2018-08-16T16:14:36.006Z,41.60
2018-08-16T16:17:06.749Z,41.60
2018-08-16T16:19:37.514Z,41.60
2018-08-16T16:22:09.284Z,41.60
2018-08-16T16:24:41.613Z,42.00
2018-08-16T16:27:13.455Z,42.60
2018-08-16T16:29:45.046Z,43.00
2018-08-16T16:32:16.668Z,41.00
2018-08-16T16:37:23.269Z,41.80
2018-08-16T16:39:55.706Z,44.00
2018-08-16T16:42:26.728Z,43.80
2018-08-16T16:44:57.502Z,43.60
2018-08-16T16:47:27.689Z,43.90
2018-08-16T16:50:00.227Z,43.60
2018-08-16T16:52:31.572Z,44.50
2018-08-16T16:55:03.090Z,43.60
2018-08-16T16:57:36.289Z,44.30
2018-08-16T17:00:08.387Z,41.40
2018-08-16T17:02:39.073Z,39.10
2018-08-16T17:05:10.299Z,38.80
2018-08-16T17:07:42.290Z,41.20
2018-08-16T17:10:15.785Z,42.80
2018-08-16T17:12:45.812Z,44.00
2018-08-16T17:15:17.756Z,45.40
2018-08-16T17:17:50.697Z,45.30
2018-08-16T17:20:22.878Z,45.60
2018-08-16T17:22:54.856Z,45.90
2018-08-16T17:25:28.924Z,46.70
2018-08-16T17:28:01.776Z,47.30
2018-08-16T17:30:33.807Z,47.70
2018-08-16T17:33:05.962Z,47.30
2018-08-16T17:35:37.920Z,50.10
2018-08-16T17:38:09.969Z,51.20
2018-08-16T17:40:41.187Z,50.10
2018-08-16T17:43:14.025Z,51.70
2018-08-16T17:45:48.375Z,50.30
2018-08-16T17:48:19.020Z,50.50
2018-08-16T17:50:49.683Z,51.10
2018-08-16T17:58:18.089Z,52.00
2018-08-16T18:00:48.232Z,53.90
2018-08-16T18:03:21.483Z,54.10
2018-08-16T18:05:53.483Z,53.90
2018-08-16T18:08:24.862Z,54.00
2018-08-16T18:10:56.381Z,55.30
2018-08-16T18:13:28.433Z,54.30
2018-08-16T18:15:59.179Z,54.10
2018-08-16T18:18:30.380Z,54.20
2018-08-16T18:21:00.635Z,54.10
2018-08-16T18:23:31.880Z,55.60
2018-08-16T18:26:05.292Z,55.50
2018-08-16T18:28:38.154Z,55.80
2018-08-16T18:31:10.889Z,57.10
2018-08-16T18:33:43.457Z,56.10
2018-08-16T18:36:16.661Z,56.30
2018-08-16T18:38:48.322Z,56.50
2018-08-16T18:41:20.533Z,56.80
2018-08-16T18:43:54.216Z,57.50
2018-08-16T18:46:25.329Z,57.50
2018-08-16T18:48:57.329Z,58.10
2018-08-16T18:51:29.323Z,57.20
2018-08-16T18:54:01.064Z,57.90
2018-08-16T18:56:32.387Z,57.70
2018-08-16T18:59:03.529Z,58.20
2018-08-16T19:01:34.358Z,58.20
2018-08-16T19:04:04.928Z,58.00
2018-08-16T19:06:36.703Z,58.40
2018-08-16T19:09:10.211Z,58.70
2018-08-16T19:11:40.736Z,58.60
2018-08-16T19:14:12.438Z,58.70
2018-08-16T19:16:45.971Z,58.70
2018-08-16T19:19:16.795Z,58.80
2018-08-16T19:21:47.561Z,59.10
2018-08-16T19:24:19.901Z,59.30
2018-08-16T19:26:50.836Z,59.70
2018-08-16T19:29:22.605Z,59.40
2018-08-16T19:31:53.309Z,59.40
2018-08-16T19:34:25.815Z,60.30
2018-08-16T19:36:57.560Z,60.10
2018-08-16T19:39:27.514Z,59.90
2018-08-16T19:41:58.622Z,60.20
2018-08-16T19:44:30.248Z,60.50
2018-08-16T19:47:01.714Z,62.00
2018-08-16T19:49:36.370Z,61.80
2018-08-16T19:52:10.410Z,61.80
2018-08-16T19:54:41.128Z,61.90
2018-08-16T19:57:17.058Z,62.40
2018-08-16T19:59:48.358Z,62.50
2018-08-16T20:02:20.866Z,62.20
2018-08-16T20:04:50.846Z,62.60
2018-08-16T20:07:22.517Z,62.70
2018-08-16T20:09:54.600Z,63.20
2018-08-16T20:12:26.536Z,63.20
2018-08-16T20:14:58.457Z,63.90
2018-08-16T20:17:31.457Z,64.70
2018-08-16T20:20:04.645Z,65.00
2018-08-16T20:22:35.943Z,64.80
2018-08-16T20:25:09.804Z,64.90
2018-08-16T20:27:41.982Z,65.80
2018-08-16T20:30:16.852Z,66.70
2018-08-16T20:32:48.085Z,67.90
2018-08-16T20:35:20.636Z,67.50
2018-08-16T20:37:51.693Z,68.10
2018-08-16T20:40:24.274Z,68.00
2018-08-16T20:42:54.933Z,67.40
2018-08-16T20:45:26.712Z,67.60
2018-08-16T20:50:35.806Z,67.40
2018-08-16T20:53:07.494Z,67.00
2018-08-16T20:55:37.749Z,66.90
2018-08-16T20:58:08.585Z,67.00
2018-08-16T21:00:39.853Z,68.80
2018-08-16T21:03:12.889Z,69.20
2018-08-16T21:05:44.877Z,68.90
2018-08-16T21:08:16.108Z,69.70
2018-08-16T21:10:47.572Z,69.10
2018-08-16T21:13:18.888Z,69.80
2018-08-16T21:15:51.457Z,69.40
2018-08-16T21:18:22.414Z,69.60
2018-08-16T21:20:54.460Z,70.20
2018-08-16T21:23:28.436Z,69.80
2018-08-16T21:25:59.456Z,69.60
2018-08-16T21:28:30.915Z,69.90
2018-08-16T21:31:03.938Z,69.70
2018-08-16T21:33:39.115Z,69.30
2018-08-16T21:36:11.581Z,69.50
2018-08-16T21:38:42.329Z,70.90
2018-08-16T21:41:13.312Z,71.00
2018-08-16T21:43:42.377Z,71.30
2018-08-16T21:46:13.051Z,70.80
2018-08-16T21:48:44.534Z,70.70
2018-08-16T21:51:16.857Z,71.50
2018-08-16T21:53:48.610Z,72.60
2018-08-16T21:56:21.714Z,72.30
2018-08-16T21:58:53.104Z,73.10
2018-08-16T22:01:25.245Z,72.90
2018-08-16T22:06:42.951Z,73.30
2018-08-16T22:09:14.189Z,73.40
2018-08-16T22:11:46.075Z,73.60
2018-08-16T22:14:18.577Z,74.30
2018-08-16T22:16:50.064Z,75.10
2018-08-16T22:19:20.761Z,75.30
2018-08-16T22:24:31.558Z,74.90
2018-08-16T22:27:03.293Z,74.70
2018-08-16T22:29:36.209Z,74.00
2018-08-16T22:32:07.599Z,73.60
2018-08-16T22:34:43.959Z,74.40
2018-08-16T22:37:15.290Z,74.80
2018-08-16T22:39:47.450Z,75.30
2018-08-16T22:42:19.678Z,77.00
2018-08-16T22:44:52.102Z,76.10
2018-08-16T22:47:24.269Z,75.80
2018-08-16T22:49:57.896Z,75.90
2018-08-16T22:52:30.211Z,76.40
2018-08-16T22:55:00.933Z,77.90
2018-08-16T22:57:34.048Z,78.20
2018-08-16T23:00:04.449Z,78.60
2018-08-16T23:02:35.992Z,79.00
2018-08-16T23:05:06.729Z,78.20
2018-08-16T23:07:38.559Z,77.60
2018-08-16T23:10:11.074Z,77.50
2018-08-16T23:12:42.659Z,77.30
2018-08-16T23:15:15.746Z,76.60
2018-08-16T23:17:51.694Z,77.50
2018-08-16T23:20:22.950Z,76.80
2018-08-16T23:22:57.929Z,76.30
2018-08-16T23:25:29.187Z,77.20
2018-08-16T23:28:00.669Z,76.60
2018-08-16T23:30:32.560Z,77.70
2018-08-16T23:33:03.256Z,77.00
2018-08-16T23:35:34.264Z,76.40
2018-08-16T23:38:08.336Z,77.30
2018-08-16T23:40:39.664Z,77.90
2018-08-16T23:43:12.627Z,77.70
2018-08-16T23:45:44.205Z,77.00
2018-08-16T23:48:25.057Z,77.40
2018-08-16T23:50:56.907Z,77.90
2018-08-16T23:53:29.163Z,79.50
2018-08-16T23:55:59.920Z,80.50
2018-08-16T23:58:31.111Z,80.00
